Time;durP1;ratioP1;P1;durP2;ratioP2;P2;SDS_P1;SDS_P2;PMS_P1;PMS_P2;Temp;Humidity;BMP_temperature;BMP_pressure;BME280_temperature;BME280_humidity;BME280_pressure;Samples;Min_cycle;Max_cycle;Signal;HPM_P1;HPM_P2
2022/03/16 00:00:19;;;;;;;51.40;23.98;;;8.30;98.00;;;;;;5012532;28;20026;-74
2022/03/16 00:02:47;;;;;;;50.80;24.33;;;8.30;98.10;;;;;;5012753;28;20034;-74
2022/03/16 00:05:13;;;;;;;55.05;24.88;;;8.20;98.20;;;;;;5012720;28;20053;-72
2022/03/16 00:07:39;;;;;;;50.63;23.42;;;8.10;98.10;;;;;;5012786;28;20497;-72
2022/03/16 00:10:07;;;;;;;57.35;23.73;;;8.10;98.10;;;;;;5012470;28;20333;-73
2022/03/16 00:12:33;;;;;;;57.03;25.25;;;8.00;98.10;;;;;;5012520;28;20136;-73
2022/03/16 00:14:59;;;;;;;56.45;24.77;;;8.00;98.40;;;;;;5012402;28;20042;-73
2022/03/16 00:17:25;;;;;;;52.13;23.60;;;8.00;98.60;;;;;;5012112;28;20034;-73
2022/03/16 00:19:51;;;;;;;54.85;23.67;;;8.00;98.70;;;;;;5012374;28;20096;-73
2022/03/16 00:22:16;;;;;;;51.17;23.38;;;8.00;98.60;;;;;;5012405;28;20361;-73
2022/03/16 00:24:42;;;;;;;49.28;23.40;;;8.00;98.50;;;;;;5012266;28;20112;-73
2022/03/16 00:27:07;;;;;;;52.35;23.15;;;8.00;98.40;;;;;;5012158;28;20451;-73
2022/03/16 00:29:33;;;;;;;55.47;24.90;;;7.90;98.30;;;;;;5027580;28;20129;-72
2022/03/16 00:31:59;;;;;;;58.00;23.80;;;7.90;98.40;;;;;;5011953;28;20029;-72
2022/03/16 00:34:25;;;;;;;51.22;23.08;;;7.80;98.50;;;;;;5012319;28;20076;-72
2022/03/16 00:36:51;;;;;;;53.25;24.75;;;7.80;98.60;;;;;;5027472;28;20037;-73
2022/03/16 00:39:17;;;;;;;62.78;24.45;;;7.90;98.70;;;;;;5012138;28;20439;-71
2022/03/16 00:41:42;;;;;;;53.97;23.23;;;7.90;98.60;;;;;;5012053;28;20037;-72
2022/03/16 00:44:08;;;;;;;50.53;23.35;;;7.90;98.60;;;;;;5011672;28;20404;-71
2022/03/16 00:46:36;;;;;;;61.45;24.73;;;7.90;98.60;;;;;;5012310;28;20033;-73
2022/03/16 00:49:02;;;;;;;51.13;22.90;;;7.90;98.50;;;;;;5011893;28;20034;-73
2022/03/16 00:51:28;;;;;;;47.15;22.55;;;7.90;98.60;;;;;;5011779;28;20088;-71
2022/03/16 00:53:53;;;;;;;52.30;24.50;;;7.90;98.70;;;;;;5011724;28;20037;-71
2022/03/16 00:56:19;;;;;;;47.88;24.10;;;7.90;98.60;;;;;;5011692;28;20030;-73
2022/03/16 00:58:45;;;;;;;50.88;24.48;;;7.90;98.80;;;;;;5012008;28;20033;-72
2022/03/16 01:01:10;;;;;;;52.10;24.13;;;7.90;98.80;;;;;;5011672;28;20045;-72
2022/03/16 01:03:40;;;;;;;52.00;23.55;;;7.90;98.70;;;;;;5011564;28;20030;-74
2022/03/16 01:06:12;;;;;;;59.70;25.00;;;7.90;98.60;;;;;;5011698;28;20061;-74
2022/03/16 01:08:38;;;;;;;54.10;23.60;;;7.90;98.60;;;;;;5011571;28;20037;-73
2022/03/16 01:11:06;;;;;;;51.28;24.13;;;7.90;98.70;;;;;;5011485;28;20013;-72
2022/03/16 01:13:32;;;;;;;49.15;23.50;;;7.90;98.70;;;;;;5011959;28;20030;-72
2022/03/16 01:15:58;;;;;;;53.25;25.45;;;7.90;98.70;;;;;;5011416;28;20045;-72
2022/03/16 01:18:23;;;;;;;58.97;24.95;;;7.90;98.80;;;;;;5011438;28;20033;-73
2022/03/16 01:20:49;;;;;;;52.72;23.85;;;7.90;98.70;;;;;;5011013;28;20041;-72
2022/03/16 01:23:14;;;;;;;57.25;27.13;;;7.90;98.80;;;;;;5011323;28;20038;-72
2022/03/16 01:25:40;;;;;;;53.38;24.55;;;7.90;98.90;;;;;;5011728;28;20060;-72
2022/03/16 01:28:05;;;;;;;52.72;24.50;;;7.90;99.00;;;;;;5011370;28;20497;-70
2022/03/16 01:30:31;;;;;;;58.78;23.85;;;7.90;99.20;;;;;;5011278;28;20045;-73
2022/03/16 01:32:57;;;;;;;51.55;23.23;;;7.90;99.00;;;;;;5011196;28;20029;-73
2022/03/16 01:35:22;;;;;;;48.53;22.98;;;7.90;98.90;;;;;;5011017;28;20048;-72
2022/03/16 01:37:48;;;;;;;49.65;23.52;;;7.90;98.80;;;;;;5011466;28;20037;-72
2022/03/16 01:40:13;;;;;;;52.67;24.05;;;7.80;98.90;;;;;;5026654;28;20192;-73
2022/03/16 01:42:40;;;;;;;51.55;24.50;;;7.70;98.80;;;;;;5011180;28;20133;-71
2022/03/16 01:45:06;;;;;;;54.75;24.35;;;7.70;98.90;;;;;;5011197;28;20053;-73
2022/03/16 01:47:32;;;;;;;56.95;23.90;;;7.70;99.00;;;;;;5011259;28;20038;-72
2022/03/16 01:49:57;;;;;;;48.35;22.90;;;7.70;98.80;;;;;;5011004;28;20156;-73
2022/03/16 01:52:26;;;;;;;58.17;25.50;;;7.60;98.90;;;;;;5011537;28;20064;-73
2022/03/16 01:54:52;;;;;;;54.92;26.20;;;7.60;98.80;;;;;;5026357;28;20109;-73
2022/03/16 01:57:18;;;;;;;50.17;23.75;;;7.60;98.80;;;;;;5012955;28;20052;-71
2022/03/16 01:59:44;;;;;;;51.72;23.35;;;7.60;99.00;;;;;;5014868;28;20148;-72
2022/03/16 02:02:10;;;;;;;59.33;24.30;;;7.50;98.90;;;;;;5030302;28;20507;-73
2022/03/16 02:04:36;;;;;;;58.75;24.67;;;7.40;98.90;;;;;;5015237;28;20032;-72
2022/03/16 02:07:03;;;;;;;55.55;26.17;;;7.50;99.00;;;;;;5030313;28;20056;-72
2022/03/16 02:09:29;;;;;;;52.58;24.33;;;7.40;99.00;;;;;;5014659;28;20042;-71
2022/03/16 02:11:55;;;;;;;56.72;24.50;;;7.30;99.00;;;;;;5013825;28;20224;-71
2022/03/16 02:14:20;;;;;;;63.55;26.45;;;7.30;99.20;;;;;;5014671;28;20463;-73
2022/03/16 02:16:48;;;;;;;56.78;26.65;;;7.20;99.30;;;;;;5014921;28;20117;-71
2022/03/16 02:19:14;;;;;;;56.47;25.30;;;7.30;99.40;;;;;;5014587;28;20041;-73
2022/03/16 02:21:44;;;;;;;68.22;29.10;;;7.30;99.20;;;;;;5014376;28;20121;-72
2022/03/16 02:24:09;;;;;;;53.42;24.65;;;7.30;99.10;;;;;;5029719;28;20045;-72
2022/03/16 02:26:35;;;;;;;62.60;26.08;;;7.30;99.40;;;;;;5014394;28;20123;-72
2022/03/16 02:29:01;;;;;;;52.88;24.77;;;7.30;99.70;;;;;;5014378;28;20034;-72
2022/03/16 02:31:27;;;;;;;61.25;25.40;;;7.30;99.40;;;;;;5014674;28;20022;-71
2022/03/16 02:33:53;;;;;;;50.75;24.23;;;7.30;99.80;;;;;;5014140;28;20030;-72
2022/03/16 02:36:19;;;;;;;59.63;25.75;;;7.40;99.90;;;;;;5014032;28;20030;-71
2022/03/16 02:38:44;;;;;;;59.17;27.35;;;7.30;99.80;;;;;;5014257;28;20037;-72
2022/03/16 02:41:10;;;;;;;57.33;26.38;;;7.30;99.80;;;;;;5014082;28;20083;-71
2022/03/16 02:43:36;;;;;;;55.38;24.52;;;7.20;99.60;;;;;;5014809;28;20022;-71
2022/03/16 02:46:05;;;;;;;55.92;24.88;;;7.20;99.20;;;;;;5014205;28;20442;-71
2022/03/16 02:48:31;;;;;;;55.30;25.40;;;7.10;99.30;;;;;;5012708;28;20088;-72
2022/03/16 02:50:56;;;;;;;60.40;24.15;;;7.10;99.70;;;;;;5013943;28;20026;-70
2022/03/16 02:53:22;;;;;;;51.30;24.77;;;7.20;99.90;;;;;;5014114;28;20044;-72
2022/03/16 02:55:48;;;;;;;52.03;23.65;;;7.20;99.50;;;;;;5014077;28;20121;-70
2022/03/16 02:58:15;;;;;;;54.40;23.85;;;7.10;99.10;;;;;;5013983;28;20136;-71
2022/03/16 03:00:41;;;;;;;62.50;25.95;;;7.00;98.80;;;;;;5013780;28;20030;-71
2022/03/16 03:03:07;;;;;;;52.70;24.05;;;6.90;98.90;;;;;;5013729;28;20104;-71
2022/03/16 03:05:32;;;;;;;51.58;22.55;;;6.80;98.90;;;;;;5012590;28;20452;-71
2022/03/16 03:07:59;;;;;;;54.45;25.48;;;6.80;99.20;;;;;;5013285;28;20022;-71
2022/03/16 03:10:25;;;;;;;56.55;24.45;;;6.80;99.50;;;;;;5014377;28;20038;-70
2022/03/16 03:12:51;;;;;;;52.63;24.08;;;6.80;99.40;;;;;;5013555;28;20033;-71
2022/03/16 03:15:17;;;;;;;52.97;25.08;;;6.80;99.50;;;;;;5013525;28;20048;-71
2022/03/16 03:17:43;;;;;;;55.25;25.33;;;6.80;99.60;;;;;;5013398;28;20037;-71
2022/03/16 03:20:09;;;;;;;55.53;24.23;;;6.80;99.50;;;;;;5013130;28;20057;-71
2022/03/16 03:22:35;;;;;;;49.83;22.92;;;6.80;99.40;;;;;;5013785;28;20261;-71
2022/03/16 03:25:01;;;;;;;55.72;23.90;;;6.80;99.40;;;;;;5013342;28;20030;-71
2022/03/16 03:27:26;;;;;;;53.45;23.20;;;7.00;99.30;;;;;;5013372;28;20048;-71
2022/03/16 03:29:52;;;;;;;53.10;24.77;;;7.00;99.20;;;;;;5013360;28;20026;-71
2022/03/16 03:32:18;;;;;;;52.42;24.45;;;7.10;99.20;;;;;;5013188;28;20121;-71
2022/03/16 03:34:47;;;;;;;53.00;22.42;;;6.90;98.90;;;;;;5013512;28;20030;-71
2022/03/16 03:37:14;;;;;;;49.47;22.73;;;6.80;98.70;;;;;;5013201;28;20087;-71
2022/03/16 03:39:40;;;;;;;47.03;22.05;;;6.70;98.60;;;;;;5013123;28;20033;-70
2022/03/16 03:42:06;;;;;;;56.85;24.77;;;6.60;98.80;;;;;;5013043;28;20034;-71
2022/03/16 03:44:32;;;;;;;50.67;23.30;;;6.60;98.80;;;;;;5012990;28;20030;-72
2022/03/16 03:46:57;;;;;;;49.83;22.67;;;6.50;98.90;;;;;;5012922;28;20376;-71
2022/03/16 03:49:23;;;;;;;52.60;23.40;;;6.50;99.00;;;;;;5013334;28;20040;-71
2022/03/16 03:51:48;;;;;;;51.22;22.55;;;6.40;98.80;;;;;;5012956;28;20427;-71
2022/03/16 03:54:14;;;;;;;47.88;21.88;;;6.30;98.60;;;;;;5012664;28;20030;-70
2022/03/16 03:56:40;;;;;;;46.83;21.17;;;6.30;98.60;;;;;;5012715;28;20440;-70
2022/03/16 03:59:05;;;;;;;51.10;21.90;;;6.30;98.70;;;;;;5011618;28;20026;-70
2022/03/16 04:01:31;;;;;;;43.17;19.70;;;6.30;98.70;;;;;;5013094;28;20391;-71
2022/03/16 04:03:56;;;;;;;44.65;20.73;;;6.20;98.50;;;;;;5011567;28;20034;-71
2022/03/16 04:06:22;;;;;;;53.42;20.83;;;6.20;98.50;;;;;;5012523;28;20026;-71
2022/03/16 04:08:48;;;;;;;51.83;21.60;;;6.10;98.60;;;;;;5012431;28;20045;-71
2022/03/16 04:11:13;;;;;;;52.78;22.58;;;6.00;98.70;;;;;;5012476;28;20643;-71
2022/03/16 04:13:39;;;;;;;50.85;20.33;;;6.00;98.80;;;;;;5012968;28;20452;-71
2022/03/16 04:16:08;;;;;;;45.80;20.88;;;6.00;98.70;;;;;;5012320;28;20111;-70
2022/03/16 04:18:33;;;;;;;46.08;20.05;;;6.00;98.70;;;;;;5012009;28;20061;-71
2022/03/16 04:20:59;;;;;;;49.05;22.50;;;6.00;98.70;;;;;;5011573;28;20459;-71
2022/03/16 04:23:24;;;;;;;53.25;22.75;;;6.00;98.80;;;;;;5012431;28;20288;-70
2022/03/16 04:25:50;;;;;;;50.13;21.88;;;6.00;99.30;;;;;;5012558;28;20653;-70
2022/03/16 04:28:15;;;;;;;49.35;22.10;;;6.10;99.20;;;;;;5010392;28;20038;-70
2022/03/16 04:30:41;;;;;;;60.75;22.85;;;6.10;99.20;;;;;;5012090;28;20034;-71
2022/03/16 04:33:06;;;;;;;57.33;23.85;;;6.10;99.30;;;;;;5010973;28;20030;-69
2022/03/16 04:35:32;;;;;;;56.17;21.45;;;6.20;99.60;;;;;;5011123;28;20352;-70
2022/03/16 04:37:57;;;;;;;56.22;23.13;;;6.10;99.90;;;;;;5011262;28;20485;-71
2022/03/16 04:40:23;;;;;;;55.10;23.85;;;6.00;99.90;;;;;;5012474;28;20033;-70
2022/03/16 04:42:48;;;;;;;49.97;22.38;;;6.00;99.90;;;;;;5011930;28;20037;-70
2022/03/16 04:45:14;;;;;;;50.05;21.80;;;6.00;99.90;;;;;;5011833;28;20195;-71
2022/03/16 04:47:40;;;;;;;45.92;20.23;;;6.00;99.90;;;;;;5011813;28;20053;-71
2022/03/16 04:50:06;;;;;;;45.38;19.15;;;6.00;99.90;;;;;;5011687;28;20030;-71
2022/03/16 04:52:32;;;;;;;55.53;20.23;;;5.90;99.90;;;;;;5012085;28;20545;-71
2022/03/16 04:54:58;;;;;;;39.97;18.63;;;5.90;99.90;;;;;;5011533;28;20041;-71
2022/03/16 04:57:24;;;;;;;49.72;21.23;;;6.00;99.90;;;;;;5011612;28;20033;-71
2022/03/16 04:59:49;;;;;;;50.70;20.02;;;5.90;99.90;;;;;;5011502;28;20107;-71
2022/03/16 05:02:15;;;;;;;45.38;18.10;;;5.90;99.90;;;;;;5011546;28;20038;-70
2022/03/16 05:04:40;;;;;;;40.08;17.15;;;5.80;99.90;;;;;;5011923;28;20598;-70
2022/03/16 05:07:06;;;;;;;41.00;20.02;;;5.80;99.90;;;;;;5010413;28;20044;-70
2022/03/16 05:09:31;;;;;;;43.85;18.83;;;5.90;99.90;;;;;;5011557;28;20399;-71
2022/03/16 05:11:57;;;;;;;36.47;17.83;;;6.00;99.90;;;;;;5011332;28;20042;-71
2022/03/16 05:14:23;;;;;;;42.08;19.17;;;6.00;99.90;;;;;;5011090;28;20034;-69
2022/03/16 05:16:48;;;;;;;36.30;17.02;;;6.10;99.90;;;;;;5010655;28;20364;-70
2022/03/16 05:19:14;;;;;;;35.40;17.50;;;6.00;99.90;;;;;;5011064;28;20100;-71
2022/03/16 05:21:39;;;;;;;31.95;15.90;;;6.10;99.90;;;;;;5011036;28;20511;-71
2022/03/16 05:24:06;;;;;;;36.92;18.17;;;6.00;99.90;;;;;;5011224;28;20073;-70
2022/03/16 05:26:31;;;;;;;33.35;15.70;;;6.10;99.90;;;;;;5011448;28;20041;-69
2022/03/16 05:28:57;;;;;;;32.67;16.80;;;6.00;99.90;;;;;;5011074;28;20025;-71
2022/03/16 05:31:23;;;;;;;29.45;14.95;;;6.10;99.90;;;;;;5009797;28;20026;-70
2022/03/16 05:33:49;;;;;;;30.23;15.43;;;6.10;99.90;;;;;;5011146;28;20038;-70
2022/03/16 05:36:15;;;;;;;34.25;16.05;;;6.00;99.90;;;;;;5011157;28;20034;-71
2022/03/16 05:38:41;;;;;;;40.33;16.83;;;6.10;99.90;;;;;;5011168;28;20038;-71
2022/03/16 05:41:07;;;;;;;34.90;16.38;;;6.00;99.90;;;;;;5011257;28;20104;-70
2022/03/16 05:43:32;;;;;;;34.25;17.45;;;6.00;99.90;;;;;;5010788;28;20033;-71
2022/03/16 05:45:58;;;;;;;31.30;15.93;;;6.20;99.90;;;;;;5010312;28;20034;-71
2022/03/16 05:48:24;;;;;;;31.50;16.55;;;6.10;99.90;;;;;;5011210;28;20038;-72
2022/03/16 05:50:49;;;;;;;31.02;14.77;;;6.00;99.90;;;;;;5011263;28;20034;-71
2022/03/16 05:53:15;;;;;;;27.45;14.75;;;6.00;99.90;;;;;;5011023;28;20029;-70
2022/03/16 05:55:41;;;;;;;33.83;15.52;;;5.90;99.90;;;;;;5011465;28;20112;-71
2022/03/16 05:58:08;;;;;;;27.85;15.10;;;6.00;99.90;;;;;;5010084;28;20351;-70
2022/03/16 06:00:34;;;;;;;34.90;16.17;;;6.00;99.90;;;;;;5010950;28;20030;-71
2022/03/16 06:03:00;;;;;;;31.38;15.18;;;5.90;99.90;;;;;;5009899;28;20348;-71
2022/03/16 06:05:26;;;;;;;30.75;15.80;;;5.90;99.90;;;;;;5010879;28;20117;-70
2022/03/16 06:07:51;;;;;;;33.00;16.60;;;5.80;99.90;;;;;;5011562;28;20323;-71
2022/03/16 06:10:18;;;;;;;32.42;15.43;;;5.80;99.90;;;;;;5010796;28;20538;-71
2022/03/16 06:12:53;;;;;;;29.45;15.93;;;5.90;99.90;;;;;;5010995;28;20026;-71
2022/03/16 06:15:19;;;;;;;31.00;15.85;;;6.00;99.90;;;;;;5010732;28;20108;-69
2022/03/16 06:17:45;;;;;;;28.95;16.27;;;6.00;99.90;;;;;;5010830;28;20418;-70
2022/03/16 06:20:10;;;;;;;32.70;16.60;;;6.10;99.90;;;;;;5010893;28;20038;-71
2022/03/16 06:22:36;;;;;;;32.80;15.85;;;6.10;99.90;;;;;;5010080;28;20643;-70
2022/03/16 06:25:02;;;;;;;31.80;15.45;;;6.20;99.90;;;;;;5010655;28;20459;-70
2022/03/16 06:27:27;;;;;;;29.13;15.23;;;6.40;99.90;;;;;;5005585;28;20030;-70
2022/03/16 06:29:53;;;;;;;30.80;15.07;;;6.50;99.90;;;;;;5006675;28;20473;-72
2022/03/16 06:32:18;;;;;;;34.17;15.43;;;6.50;99.90;;;;;;4991233;28;20106;-72
2022/03/16 06:34:45;;;;;;;26.90;14.80;;;6.50;99.90;;;;;;4991525;28;20534;-70
2022/03/16 06:37:11;;;;;;;28.27;15.27;;;6.50;99.90;;;;;;4991099;28;20107;-70
2022/03/16 06:39:37;;;;;;;33.58;15.90;;;6.60;99.90;;;;;;4990982;28;20491;-72
2022/03/16 06:42:03;;;;;;;30.02;15.95;;;6.60;99.90;;;;;;4991314;28;20030;-71
2022/03/16 06:44:29;;;;;;;30.75;15.85;;;6.80;99.90;;;;;;4994651;28;20060;-73
2022/03/16 06:46:54;;;;;;;29.33;15.80;;;6.80;99.70;;;;;;4994466;28;20042;-72
2022/03/16 06:49:20;;;;;;;33.97;16.17;;;6.90;99.50;;;;;;4994987;28;20145;-73
2022/03/16 06:51:45;;;;;;;27.70;14.73;;;6.90;99.50;;;;;;4994548;28;20388;-72
2022/03/16 06:54:11;;;;;;;40.45;17.17;;;6.80;99.50;;;;;;5009484;28;20369;-73
2022/03/16 06:56:37;;;;;;;42.45;19.73;;;6.80;99.50;;;;;;4994173;28;20037;-73
2022/03/16 06:59:02;;;;;;;38.78;18.65;;;6.90;99.70;;;;;;4994278;28;20022;-72
2022/03/16 07:01:28;;;;;;;42.85;21.45;;;6.90;99.60;;;;;;4994665;28;20022;-74
2022/03/16 07:03:53;;;;;;;34.78;16.38;;;7.00;99.50;;;;;;4994409;28;20026;-73
2022/03/16 07:06:19;;;;;;;33.72;17.60;;;7.00;99.50;;;;;;5009390;28;20030;-72
2022/03/16 07:08:46;;;;;;;29.42;15.55;;;7.00;99.60;;;;;;5009398;28;20468;-73
2022/03/16 07:11:12;;;;;;;30.65;16.98;;;7.00;99.40;;;;;;4994130;28;20037;-73
2022/03/16 07:13:41;;;;;;;26.58;15.07;;;7.00;99.50;;;;;;4994559;28;20052;-72
2022/03/16 07:16:07;;;;;;;31.58;17.08;;;7.10;99.50;;;;;;4989754;28;20031;-73
2022/03/16 07:18:33;;;;;;;38.00;18.27;;;7.20;99.50;;;;;;4974381;28;20505;-75
2022/03/16 07:20:59;;;;;;;29.23;16.45;;;7.30;99.30;;;;;;4974329;28;20046;-72
2022/03/16 07:23:25;;;;;;;31.67;16.80;;;7.30;99.40;;;;;;4974735;28;20118;-73
2022/03/16 07:25:52;;;;;;;31.98;16.10;;;7.30;99.50;;;;;;4974922;28;20085;-75
2022/03/16 07:28:19;;;;;;;29.80;16.00;;;7.40;99.50;;;;;;4994154;28;20137;-72
2022/03/16 07:30:45;;;;;;;34.78;16.90;;;7.60;99.70;;;;;;4993785;28;20043;-74
2022/03/16 07:33:12;;;;;;;29.40;16.40;;;7.60;99.30;;;;;;4993724;28;20042;-73
2022/03/16 07:35:38;;;;;;;35.08;15.82;;;7.60;99.30;;;;;;4993680;28;20111;-72
2022/03/16 07:38:05;;;;;;;31.42;16.58;;;7.70;99.50;;;;;;4992549;28;20034;-72
2022/03/16 07:40:33;;;;;;;30.30;16.45;;;7.80;99.30;;;;;;5009414;28;20448;-73
2022/03/16 07:42:59;;;;;;;34.30;18.15;;;7.90;99.20;;;;;;4989452;28;20035;-73
2022/03/16 07:45:25;;;;;;;30.25;16.15;;;7.90;99.30;;;;;;4986971;28;20031;-73
2022/03/16 07:47:53;;;;;;;31.85;16.60;;;7.90;99.30;;;;;;4993491;28;20045;-73
2022/03/16 07:50:19;;;;;;;38.55;17.42;;;7.90;99.50;;;;;;4993337;28;20033;-73
2022/03/16 07:52:45;;;;;;;36.83;17.63;;;8.00;99.60;;;;;;4993855;28;20109;-72
2022/03/16 07:55:14;;;;;;;34.40;18.58;;;7.90;99.60;;;;;;4992659;28;20125;-71
2022/03/16 07:57:40;;;;;;;36.95;17.73;;;7.90;99.70;;;;;;4993558;28;20026;-72
2022/03/16 08:00:10;;;;;;;35.30;18.92;;;8.10;99.70;;;;;;4993259;28;20055;-73
2022/03/16 08:02:36;;;;;;;32.13;18.08;;;8.20;99.70;;;;;;4993175;28;20046;-72
2022/03/16 08:05:01;;;;;;;36.42;18.05;;;8.30;99.70;;;;;;4993020;28;20030;-72
2022/03/16 08:07:29;;;;;;;33.38;18.50;;;8.30;99.60;;;;;;4992608;28;20084;-71
2022/03/16 08:09:55;;;;;;;33.28;17.88;;;8.40;99.70;;;;;;4993388;28;20425;-71
2022/03/16 08:12:21;;;;;;;39.53;19.30;;;8.50;99.60;;;;;;4993122;28;20479;-71
2022/03/16 08:14:46;;;;;;;40.65;20.60;;;8.60;99.70;;;;;;4992909;28;20069;-74
2022/03/16 08:17:12;;;;;;;36.53;17.90;;;8.80;99.90;;;;;;5008055;28;20023;-72
2022/03/16 08:19:37;;;;;;;42.22;19.25;;;9.20;99.50;;;;;;4993449;28;20096;-73
2022/03/16 08:22:03;;;;;;;34.22;18.48;;;9.50;99.20;;;;;;5008205;28;20034;-72
2022/03/16 08:24:29;;;;;;;33.75;17.60;;;9.80;98.80;;;;;;5007981;28;20031;-70
2022/03/16 08:26:54;;;;;;;38.35;18.15;;;10.00;98.00;;;;;;4993411;28;20048;-71
2022/03/16 08:29:20;;;;;;;45.60;18.92;;;10.20;97.80;;;;;;4992755;28;20035;-69
2022/03/16 08:31:45;;;;;;;35.80;20.00;;;10.40;97.60;;;;;;4993483;28;20053;-71
2022/03/16 08:34:11;;;;;;;39.08;18.95;;;10.40;97.40;;;;;;4992716;28;20042;-70
2022/03/16 08:36:39;;;;;;;39.42;19.25;;;10.50;97.20;;;;;;4996897;28;20044;-71
2022/03/16 08:39:05;;;;;;;38.45;19.52;;;10.70;96.90;;;;;;5028155;28;20065;-71
2022/03/16 08:41:33;;;;;;;39.10;19.60;;;10.70;96.60;;;;;;5028091;28;20153;-71
2022/03/16 08:43:59;;;;;;;39.35;20.90;;;10.90;96.50;;;;;;5012692;28;20018;-71
2022/03/16 08:46:25;;;;;;;35.63;19.25;;;11.20;96.30;;;;;;5012932;28;20347;-72
2022/03/16 08:48:51;;;;;;;34.78;19.80;;;11.40;96.00;;;;;;5012267;28;20034;-72
2022/03/16 08:51:17;;;;;;;37.28;19.70;;;11.60;95.70;;;;;;5027374;28;20033;-71
2022/03/16 08:53:42;;;;;;;40.97;21.38;;;11.80;95.50;;;;;;5007827;28;20407;-70
2022/03/16 08:56:11;;;;;;;40.53;20.73;;;12.00;95.00;;;;;;4994693;28;20027;-71
2022/03/16 08:58:37;;;;;;;37.65;21.15;;;12.20;94.70;;;;;;5012707;28;20018;-69
2022/03/16 09:01:06;;;;;;;39.72;22.23;;;12.30;94.40;;;;;;5012199;28;20409;-69
2022/03/16 09:03:31;;;;;;;37.75;20.60;;;12.40;94.50;;;;;;5011979;28;20033;-69
2022/03/16 09:05:59;;;;;;;40.00;21.58;;;12.50;93.90;;;;;;5011771;28;20451;-69
2022/03/16 09:08:24;;;;;;;39.88;21.58;;;12.70;93.60;;;;;;5011831;28;20042;-68
2022/03/16 09:10:50;;;;;;;36.83;20.27;;;12.80;93.50;;;;;;5012069;28;20030;-71
2022/03/16 09:13:17;;;;;;;42.10;20.60;;;12.80;93.20;;;;;;5011752;28;20053;-69
2022/03/16 09:15:44;;;;;;;40.03;21.65;;;12.80;93.10;;;;;;5011671;28;20030;-71
2022/03/16 09:18:10;;;;;;;36.72;19.20;;;12.80;92.70;;;;;;5011423;28;20030;-70
2022/03/16 09:20:39;;;;;;;37.20;20.23;;;12.70;92.70;;;;;;5011280;28;20050;-68
2022/03/16 09:23:05;;;;;;;38.05;21.00;;;12.60;92.90;;;;;;5011586;28;20018;-70
2022/03/16 09:25:31;;;;;;;36.03;19.23;;;12.60;92.90;;;;;;5027512;28;20038;-71
2022/03/16 09:27:57;;;;;;;39.97;20.15;;;12.50;92.90;;;;;;5027361;28;20087;-70
2022/03/16 09:30:24;;;;;;;36.67;20.98;;;12.50;93.20;;;;;;5012059;28;20057;-69
2022/03/16 09:32:54;;;;;;;37.22;19.35;;;12.40;92.90;;;;;;5011841;28;20049;-72
2022/03/16 09:35:19;;;;;;;42.30;19.83;;;12.40;92.90;;;;;;5011957;28;20049;-71
2022/03/16 09:37:45;;;;;;;38.17;19.42;;;12.30;93.00;;;;;;5012476;28;20396;-71
2022/03/16 09:40:11;;;;;;;37.42;19.92;;;12.40;93.20;;;;;;5011479;28;20034;-72
2022/03/16 09:42:38;;;;;;;34.90;19.88;;;12.50;93.20;;;;;;5011892;28;20534;-72
2022/03/16 09:45:07;;;;;;;40.25;19.77;;;12.50;93.20;;;;;;5012220;28;20157;-72
2022/03/16 09:47:35;;;;;;;44.67;21.52;;;12.60;93.00;;;;;;5026748;28;20030;-71
2022/03/16 09:50:00;;;;;;;39.92;23.30;;;12.70;92.90;;;;;;5027547;28;20444;-72
2022/03/16 09:52:26;;;;;;;40.45;21.88;;;12.60;92.90;;;;;;5012421;28;20030;-72
2022/03/16 09:54:55;;;;;;;41.83;20.55;;;12.70;92.80;;;;;;5011642;28;20041;-74
2022/03/16 09:57:21;;;;;;;42.28;19.50;;;12.80;92.80;;;;;;5011455;28;20036;-72
2022/03/16 09:59:46;;;;;;;39.58;19.08;;;12.90;92.30;;;;;;5011909;28;20371;-73
2022/03/16 10:02:16;;;;;;;35.28;19.00;;;13.10;91.90;;;;;;5011959;28;20022;-71
2022/03/16 10:04:42;;;;;;;42.92;18.85;;;13.30;91.70;;;;;;5012500;28;20022;-72
2022/03/16 10:07:09;;;;;;;35.83;17.05;;;13.50;91.50;;;;;;5011910;28;20037;-73
2022/03/16 10:15:16;;;;;;;32.88;16.80;;;14.50;90.50;;;;;;5011162;28;20041;-72
2022/03/16 10:17:46;;;;;;;29.55;15.95;;;15.10;89.30;;;;;;5012124;28;20172;-71
2022/03/16 10:20:31;;;;;;;37.03;17.48;;;15.70;89.30;;;;;;5014575;28;20495;-70
2022/03/16 10:23:03;;;;;;;28.60;15.70;;;16.30;85.50;;;;;;5014666;28;20041;-76
2022/03/16 10:25:40;;;;;;;31.67;17.10;;;17.20;86.90;;;;;;5014153;28;20025;-71
2022/03/16 10:28:12;;;;;;;30.65;17.15;;;18.30;83.40;;;;;;5030255;28;20030;-72
2022/03/16 10:30:57;;;;;;;28.48;16.83;;;19.20;77.50;;;;;;5014513;28;20099;-72
2022/03/16 10:33:24;;;;;;;28.98;15.85;;;20.10;77.80;;;;;;5014366;28;20034;-72
2022/03/16 10:36:09;;;;;;;30.05;15.57;;;20.50;73.00;;;;;;5014358;28;20046;-72
2022/03/16 10:38:41;;;;;;;25.70;13.60;;;20.90;71.00;;;;;;5014459;28;20049;-73
2022/03/16 10:46:46;;;;;;;25.23;13.18;;;22.20;64.80;;;;;;5014841;28;20033;-74
2022/03/16 10:49:16;;;;;;;23.48;11.65;;;22.40;62.30;;;;;;5029788;28;20018;-73
2022/03/16 10:51:45;;;;;;;22.52;12.48;;;22.80;59.80;;;;;;5014164;28;20081;-71
2022/03/16 10:54:14;;;;;;;21.20;11.80;;;22.70;60.00;;;;;;5013999;28;20033;-71
2022/03/16 10:56:41;;;;;;;17.42;11.52;;;22.70;57.60;;;;;;5014121;28;20034;-74
2022/03/16 10:59:07;;;;;;;18.60;10.88;;;22.60;57.60;;;;;;5014023;28;20490;-73
2022/03/16 11:01:38;;;;;;;20.73;10.48;;;22.40;56.80;;;;;;5014424;28;20045;-71
2022/03/16 11:04:04;;;;;;;36.15;22.20;;;21.80;57.00;;;;;;5014077;28;20053;-72
2022/03/16 11:06:31;;;;;;;19.65;11.65;;;21.40;56.00;;;;;;5014173;28;20026;-73
2022/03/16 11:08:59;;;;;;;16.80;10.27;;;21.20;56.20;;;;;;5014022;28;20289;-73
2022/03/16 11:14:11;;;;;;;22.45;10.93;;;21.10;56.80;;;;;;5013551;28;20087;-71
2022/03/16 11:16:37;;;;;;;23.27;11.98;;;21.30;56.30;;;;;;5014110;28;20042;-74
2022/03/16 11:19:07;;;;;;;24.70;13.02;;;21.30;56.40;;;;;;5013446;28;20030;-72
2022/03/16 11:21:49;;;;;;;33.45;18.13;;;21.60;55.50;;;;;;5013296;28;20042;-73
2022/03/16 11:24:24;;;;;;;21.23;12.60;;;21.50;56.50;;;;;;5013612;28;20069;-74
2022/03/16 11:27:15;;;;;;;30.95;18.08;;;21.10;56.20;;;;;;5013658;28;20487;-70
2022/03/16 11:30:19;;;;;;;21.80;12.90;;;21.10;56.10;;;;;;5028732;28;20088;-72
2022/03/16 11:32:46;;;;;;;18.08;11.20;;;21.20;55.70;;;;;;5013586;28;20116;-72
2022/03/16 11:35:18;;;;;;;22.88;11.48;;;20.90;55.40;;;;;;5013350;28;20041;-72
2022/03/16 11:37:51;;;;;;;21.33;11.40;;;20.90;55.70;;;;;;5013532;28;20022;-73
2022/03/16 11:40:22;;;;;;;24.48;12.77;;;20.80;55.40;;;;;;5013277;28;20475;-72
2022/03/16 11:43:08;;;;;;;22.33;11.40;;;20.60;56.00;;;;;;5013134;28;20033;-70
2022/03/16 11:45:41;;;;;;;20.00;11.25;;;20.60;55.60;;;;;;5013338;28;20120;-74
2022/03/16 11:48:31;;;;;;;24.02;12.70;;;20.40;55.60;;;;;;5013215;28;20524;-75
2022/03/16 11:51:09;;;;;;;24.33;12.45;;;20.20;56.50;;;;;;5013141;28;20058;-72
2022/03/16 11:53:46;;;;;;;28.05;12.73;;;19.90;56.60;;;;;;5028537;28;20033;-72
2022/03/16 11:56:21;;;;;;;18.48;10.98;;;19.40;57.00;;;;;;5013062;28;20041;-73
2022/03/16 11:58:48;;;;;;;21.75;11.50;;;19.10;58.80;;;;;;5013153;28;20025;-72
2022/03/16 12:01:34;;;;;;;23.25;11.07;;;19.10;58.70;;;;;;5012743;28;20064;-73
2022/03/16 12:04:19;;;;;;;25.27;11.10;;;19.10;58.30;;;;;;5013725;28;20049;-73
2022/03/16 12:07:05;;;;;;;20.70;11.43;;;19.00;58.40;;;;;;5013771;28;20119;-75
2022/03/16 12:09:56;;;;;;;19.25;10.23;;;18.80;57.60;;;;;;5013146;28;20052;-74
2022/03/16 12:12:51;;;;;;;25.67;10.60;;;18.40;58.40;;;;;;5013198;28;20103;-73
2022/03/16 12:15:37;;;;;;;22.70;10.15;;;18.20;59.00;;;;;;5013123;28;20058;-73
2022/03/16 12:18:07;;;;;;;20.08;9.75;;;18.00;58.50;;;;;;5013093;28;20036;-72
2022/03/16 12:20:40;;;;;;;20.05;9.80;;;17.90;59.00;;;;;;5013042;28;20460;-72
2022/03/16 12:23:14;;;;;;;25.02;9.52;;;18.00;59.30;;;;;;5012896;28;20034;-72
2022/03/16 12:25:47;;;;;;;28.17;13.80;;;17.80;59.70;;;;;;5013592;28;20025;-73
2022/03/16 12:31:09;;;;;;;18.55;8.65;;;17.90;60.20;;;;;;5012994;28;20044;-72
2022/03/16 12:33:40;;;;;;;17.65;9.45;;;18.00;60.00;;;;;;5027881;28;20044;-71
2022/03/16 12:36:13;;;;;;;22.00;10.05;;;18.10;60.00;;;;;;5012111;28;20069;-71
2022/03/16 12:38:50;;;;;;;26.48;11.05;;;17.80;59.90;;;;;;5027704;28;20531;-73
2022/03/16 12:44:06;;;;;;;16.13;9.15;;;17.80;60.90;;;;;;5012156;28;20312;-73
2022/03/16 12:46:59;;;;;;;19.67;10.15;;;17.60;61.00;;;;;;5012863;28;20472;-73
2022/03/16 12:49:25;;;;;;;23.80;10.93;;;17.30;61.50;;;;;;5011715;28;20099;-73
2022/03/16 12:51:56;;;;;;;20.70;10.00;;;17.30;62.00;;;;;;5012228;28;20120;-73
2022/03/16 12:54:28;;;;;;;17.63;9.75;;;17.30;61.80;;;;;;5011779;28;20034;-71